createdAt,value
2024-03-02T00:01:16.705Z,6.00
2024-03-02T00:03:46.954Z,5.88
2024-03-02T00:06:35.653Z,4.75
2024-03-02T00:09:06.060Z,5.82
2024-03-02T00:11:49.675Z,5.63
2024-03-02T00:17:25.974Z,5.82
2024-03-02T00:20:04.034Z,5.25
2024-03-02T00:22:34.229Z,6.22
2024-03-02T00:25:08.845Z,5.85
2024-03-02T00:27:36.888Z,5.78
2024-03-02T00:30:34.899Z,6.07
2024-03-02T00:33:15.656Z,5.50
2024-03-02T00:35:52.926Z,5.95
2024-03-02T00:38:26.945Z,6.28
2024-03-02T00:41:01.746Z,6.15
2024-03-02T00:43:38.661Z,5.50
2024-03-02T00:46:09.033Z,6.32
2024-03-02T00:49:03.022Z,6.10
2024-03-02T00:52:03.684Z,6.32
2024-03-02T00:54:34.056Z,5.85
2024-03-02T00:57:09.992Z,5.28
2024-03-02T00:59:43.546Z,5.82
2024-03-02T01:02:17.504Z,6.03
2024-03-02T01:04:50.820Z,5.35
2024-03-02T01:07:34.075Z,5.70
2024-03-02T01:10:13.291Z,5.65
2024-03-02T01:13:03.753Z,4.57
2024-03-02T01:15:38.702Z,5.47
2024-03-02T01:18:16.373Z,5.32
2024-03-02T01:20:57.909Z,5.93
2024-03-02T01:23:49.177Z,5.28
2024-03-02T01:26:19.724Z,5.35
2024-03-02T01:28:55.002Z,5.25
2024-03-02T01:31:23.000Z,4.70
2024-03-02T01:33:57.965Z,4.80
2024-03-02T01:37:25.511Z,5.30
2024-03-02T01:39:37.199Z,5.03
2024-03-02T01:42:22.480Z,5.50
2024-03-02T01:44:56.048Z,5.65
2024-03-02T01:47:26.472Z,4.63
2024-03-02T01:49:58.809Z,5.50
2024-03-02T01:52:31.875Z,5.47
2024-03-02T01:55:21.393Z,5.45
2024-03-02T01:57:52.818Z,5.20
2024-03-02T02:00:27.587Z,4.80
2024-03-02T02:02:59.630Z,6.28
2024-03-02T02:05:32.243Z,6.32
2024-03-02T02:08:07.879Z,5.32
2024-03-02T02:10:36.968Z,4.82
2024-03-02T02:13:10.411Z,4.25
2024-03-02T02:15:43.518Z,4.68
2024-03-02T02:18:26.539Z,4.10
2024-03-02T02:21:08.771Z,4.85
2024-03-02T02:23:43.320Z,5.03
2024-03-02T02:26:11.310Z,4.60
2024-03-02T02:28:53.051Z,4.32
2024-03-02T02:31:20.886Z,5.18
2024-03-02T02:33:48.821Z,4.47
2024-03-02T02:36:17.074Z,5.00
2024-03-02T02:39:01.957Z,4.50
2024-03-02T02:41:48.537Z,4.85
2024-03-02T02:44:28.644Z,4.40
2024-03-02T02:47:13.903Z,4.57
2024-03-02T02:49:44.583Z,5.25
2024-03-02T02:52:14.814Z,5.03
2024-03-02T02:54:43.647Z,5.22
2024-03-02T02:57:14.195Z,5.35
2024-03-02T02:59:52.220Z,5.22
2024-03-02T03:02:34.207Z,5.28
2024-03-02T03:05:09.662Z,5.88
2024-03-02T03:07:52.288Z,5.45
2024-03-02T03:10:31.679Z,5.72
2024-03-02T03:13:02.224Z,5.32
2024-03-02T03:15:44.753Z,6.20
2024-03-02T03:18:27.580Z,6.03
2024-03-02T03:20:57.672Z,5.95
2024-03-02T03:23:57.427Z,5.53
2024-03-02T03:26:18.390Z,5.38
2024-03-02T03:28:46.477Z,5.93
2024-03-02T03:31:24.333Z,6.15
2024-03-02T03:33:53.857Z,5.25
2024-03-02T03:36:26.383Z,6.03
2024-03-02T03:38:58.789Z,6.20
2024-03-02T03:41:26.715Z,5.60
2024-03-02T03:44:01.859Z,5.63
2024-03-02T03:46:29.832Z,5.82
2024-03-02T03:49:02.449Z,6.25
2024-03-02T03:51:36.692Z,5.35
2024-03-02T03:54:18.746Z,6.05
2024-03-02T03:59:29.375Z,6.47
2024-03-02T04:01:59.824Z,6.78
2024-03-02T04:04:33.830Z,6.47
2024-03-02T04:07:04.259Z,6.60
2024-03-02T04:09:38.397Z,6.35
2024-03-02T04:12:09.705Z,6.32
2024-03-02T04:14:43.820Z,6.55
2024-03-02T04:17:14.980Z,7.10
2024-03-02T04:20:05.148Z,6.57
2024-03-02T04:22:42.959Z,6.88
2024-03-02T04:27:42.509Z,6.80
2024-03-02T04:30:27.542Z,6.30
2024-03-02T04:33:06.210Z,6.53
2024-03-02T04:35:50.657Z,6.53
2024-03-02T04:38:52.987Z,7.43
2024-03-02T04:41:19.763Z,6.55
2024-03-02T04:44:12.127Z,7.53
2024-03-02T04:46:43.850Z,6.95
2024-03-02T04:49:24.349Z,6.38
2024-03-02T04:51:55.743Z,6.68
2024-03-02T04:54:29.751Z,7.53
2024-03-02T04:57:01.101Z,6.97
2024-03-02T04:59:31.488Z,7.07
2024-03-02T05:02:02.123Z,7.32
2024-03-02T05:04:37.109Z,8.15
2024-03-02T05:07:09.825Z,7.18
2024-03-02T05:09:48.647Z,7.00
2024-03-02T05:12:38.671Z,7.45
2024-03-02T05:15:23.237Z,6.15
2024-03-02T05:18:07.291Z,7.10
2024-03-02T05:20:51.422Z,7.20
2024-03-02T05:23:32.439Z,7.40
2024-03-02T05:26:05.536Z,7.47
2024-03-02T05:28:46.011Z,8.02
2024-03-02T05:31:19.594Z,6.95
2024-03-02T05:33:57.628Z,7.00
2024-03-02T05:36:25.933Z,7.75
2024-03-02T05:38:53.455Z,7.40
2024-03-02T05:41:21.052Z,7.57
2024-03-02T05:43:48.985Z,7.90
2024-03-02T05:46:17.117Z,9.00
2024-03-02T05:48:45.052Z,7.80
2024-03-02T05:51:14.172Z,6.93
2024-03-02T05:53:43.167Z,7.47
2024-03-02T05:56:18.375Z,7.93
2024-03-02T05:59:05.275Z,8.10
2024-03-02T06:01:35.642Z,7.47
2024-03-02T06:04:06.178Z,8.27
2024-03-02T06:06:37.071Z,7.32
2024-03-02T06:09:15.033Z,7.57
2024-03-02T06:11:47.502Z,8.05
2024-03-02T06:14:21.498Z,8.02
2024-03-02T06:16:54.592Z,7.05
2024-03-02T06:19:32.197Z,7.43
2024-03-02T06:22:11.477Z,8.13
2024-03-02T06:24:39.595Z,7.45
2024-03-02T06:27:17.468Z,7.22
2024-03-02T06:29:50.830Z,7.55
2024-03-02T06:32:38.981Z,7.05
2024-03-02T06:35:12.150Z,7.32
2024-03-02T06:37:54.606Z,7.53
2024-03-02T06:40:24.596Z,7.30
2024-03-02T06:43:05.325Z,6.63
2024-03-02T06:45:43.630Z,7.47
2024-03-02T06:48:26.064Z,7.07
2024-03-02T06:51:00.666Z,7.88
2024-03-02T06:53:38.917Z,8.32
2024-03-02T06:56:12.226Z,7.35
2024-03-02T06:58:46.341Z,7.03
2024-03-02T07:01:14.570Z,8.15
2024-03-02T07:03:45.355Z,8.38
2024-03-02T07:06:13.354Z,8.73
2024-03-02T07:08:46.236Z,7.20
2024-03-02T07:11:16.768Z,8.05
2024-03-02T07:13:45.179Z,7.40
2024-03-02T07:16:34.437Z,8.73
2024-03-02T07:19:03.293Z,8.70
2024-03-02T07:21:37.163Z,8.25
2024-03-02T07:24:05.309Z,8.45
2024-03-02T07:29:03.961Z,8.45
2024-03-02T07:31:31.482Z,9.05
2024-03-02T07:34:01.593Z,8.63
2024-03-02T07:36:36.439Z,9.10
2024-03-02T07:39:26.959Z,9.23
2024-03-02T07:42:04.256Z,9.27
2024-03-02T07:44:42.917Z,9.93
2024-03-02T07:47:15.003Z,9.82
2024-03-02T07:49:49.697Z,10.05
2024-03-02T07:52:25.321Z,9.65
2024-03-02T07:55:03.667Z,10.65
2024-03-02T07:57:31.552Z,9.23
2024-03-02T08:00:02.895Z,8.57
2024-03-02T08:02:40.060Z,8.02
2024-03-02T08:05:09.084Z,8.85
2024-03-02T08:07:37.178Z,7.95
2024-03-02T08:10:06.130Z,7.90
2024-03-02T08:12:33.856Z,7.60
2024-03-02T08:15:01.692Z,7.90
2024-03-02T08:17:38.169Z,7.28
2024-03-02T08:20:07.173Z,8.00
2024-03-02T08:22:37.744Z,7.35
2024-03-02T08:25:09.756Z,7.13
2024-03-02T08:27:42.270Z,8.45
2024-03-02T08:30:13.143Z,7.93
2024-03-02T08:32:43.074Z,7.90
2024-03-02T08:35:10.842Z,9.27
2024-03-02T08:37:41.182Z,7.25
2024-03-02T08:40:11.378Z,7.95
2024-03-02T08:42:39.868Z,7.90
2024-03-02T08:45:08.886Z,9.27
2024-03-02T08:47:38.745Z,7.75
2024-03-02T08:50:18.852Z,6.57
2024-03-02T08:52:55.481Z,7.85
2024-03-02T08:55:29.654Z,8.13
2024-03-02T08:58:01.846Z,7.65
2024-03-02T09:00:34.320Z,9.18
2024-03-02T09:03:02.499Z,8.60
2024-03-02T09:05:33.472Z,7.45
2024-03-02T09:08:01.240Z,7.65
2024-03-02T09:10:29.092Z,7.95
2024-03-02T09:12:58.899Z,7.10
2024-03-02T09:15:30.036Z,8.02
2024-03-02T09:17:58.536Z,7.93
2024-03-02T09:20:26.363Z,6.15
2024-03-02T09:22:56.372Z,5.65
2024-03-02T09:25:24.558Z,5.65
2024-03-02T09:27:52.421Z,5.85
2024-03-02T09:30:23.381Z,6.43
2024-03-02T09:32:51.386Z,5.47
2024-03-02T09:35:22.139Z,6.30
2024-03-02T09:37:50.504Z,8.93
2024-03-02T09:40:18.923Z,7.00
2024-03-02T09:42:52.477Z,6.32
2024-03-02T09:45:32.863Z,6.75
2024-03-02T09:48:06.817Z,6.80
2024-03-02T09:50:37.091Z,7.13
2024-03-02T09:53:08.856Z,7.35
2024-03-02T09:55:36.518Z,7.50
2024-03-02T09:58:04.311Z,7.20
2024-03-02T10:00:31.787Z,6.45
2024-03-02T10:02:59.597Z,6.47
2024-03-02T10:05:30.743Z,7.15
2024-03-02T10:08:02.063Z,7.82
2024-03-02T10:10:45.452Z,7.18
2024-03-02T10:13:14.278Z,7.20
2024-03-02T10:15:42.753Z,7.50
2024-03-02T10:18:14.301Z,6.30
2024-03-02T10:20:42.562Z,7.00
2024-03-02T10:23:14.811Z,6.38
2024-03-02T10:25:51.237Z,6.65
2024-03-02T10:28:22.771Z,5.32
2024-03-02T10:30:52.386Z,7.60
2024-03-02T10:33:20.206Z,6.22
2024-03-02T10:35:52.972Z,6.63
2024-03-02T10:38:20.484Z,6.25
2024-03-02T10:40:50.993Z,7.88
2024-03-02T10:43:20.076Z,7.43
2024-03-02T10:45:51.790Z,8.70
2024-03-02T10:48:19.437Z,8.80
2024-03-02T10:50:47.153Z,8.85
2024-03-02T10:53:14.534Z,8.18
2024-03-02T10:55:42.457Z,8.00
2024-03-02T10:58:27.201Z,7.57
2024-03-02T11:01:03.220Z,8.32
2024-03-02T11:03:50.433Z,8.45
2024-03-02T11:06:27.698Z,8.32
2024-03-02T11:09:29.439Z,7.88
2024-03-02T11:12:42.736Z,8.05
2024-03-02T11:15:20.783Z,9.93
2024-03-02T11:18:26.021Z,6.90
2024-03-02T11:28:22.894Z,6.68
2024-03-02T11:30:55.799Z,6.82
2024-03-02T11:33:28.450Z,7.30
2024-03-02T11:35:58.079Z,7.03
2024-03-02T11:38:30.410Z,6.78
2024-03-02T11:41:03.107Z,6.30
2024-03-02T14:05:55.791Z,6.18
2024-03-02T14:08:39.248Z,7.28
2024-03-02T14:11:06.642Z,7.00
2024-03-02T14:13:34.065Z,6.72
2024-03-02T14:16:01.513Z,7.70
2024-03-02T14:18:28.963Z,8.57
2024-03-02T14:20:57.329Z,8.52
2024-03-02T14:23:24.644Z,8.40
2024-03-02T14:25:51.971Z,7.85
2024-03-02T14:28:43.083Z,7.60
2024-03-02T14:31:08.037Z,7.90
2024-03-02T14:33:35.571Z,7.35
2024-03-02T14:36:03.086Z,7.40
2024-03-02T14:38:30.441Z,6.90
2024-03-02T14:40:57.847Z,6.28
2024-03-02T14:43:25.107Z,6.72
2024-03-02T14:45:52.472Z,6.88
2024-03-02T14:48:19.895Z,5.93
2024-03-02T14:50:47.238Z,7.30
2024-03-02T14:53:14.539Z,6.63
2024-03-02T14:55:41.807Z,7.60
2024-03-02T14:58:09.439Z,6.43
2024-03-02T15:00:36.809Z,6.05
2024-03-02T15:03:06.786Z,6.30
2024-03-02T15:05:34.267Z,6.65
2024-03-02T15:08:03.868Z,6.93
2024-03-02T15:10:31.699Z,7.32
2024-03-02T15:12:59.632Z,7.15
2024-03-02T15:15:27.717Z,8.73
2024-03-02T15:17:55.058Z,6.82
2024-03-02T15:20:22.810Z,6.85
2024-03-02T15:22:50.208Z,7.30
2024-03-02T15:25:17.640Z,7.10
2024-03-02T15:27:45.266Z,7.95
2024-03-02T15:30:12.987Z,7.25
2024-03-02T15:32:40.374Z,6.95
2024-03-02T15:35:08.521Z,6.25
2024-03-02T15:37:35.845Z,6.78
2024-03-02T15:40:07.599Z,6.35
2024-03-02T15:42:35.776Z,6.50
2024-03-02T17:43:52.679Z,7.90
2024-03-02T17:47:56.789Z,8.90
2024-03-02T18:00:36.319Z,9.60
2024-03-02T18:11:13.178Z,9.38
2024-03-02T18:14:28.129Z,10.90
2024-03-02T18:21:00.856Z,10.43
2024-03-02T18:32:50.387Z,9.15
2024-03-02T18:39:10.355Z,10.48
2024-03-02T18:41:46.411Z,10.20
2024-03-02T18:45:11.599Z,9.95
2024-03-02T18:54:15.128Z,11.40
2024-03-02T18:57:28.110Z,11.05
2024-03-02T19:02:04.345Z,12.00
2024-03-02T19:17:11.854Z,12.15
2024-03-02T19:18:06.615Z,12.38
2024-03-02T19:24:05.016Z,10.52
2024-03-02T19:33:34.216Z,11.57
2024-03-02T19:36:18.637Z,11.80
2024-03-02T19:39:28.380Z,11.88
2024-03-02T19:42:06.693Z,11.75
2024-03-02T19:44:44.555Z,11.27
2024-03-02T19:47:38.708Z,11.30
2024-03-02T19:50:52.349Z,10.77
2024-03-02T19:53:21.299Z,12.00
2024-03-02T19:59:15.503Z,13.45
2024-03-02T20:02:14.438Z,13.70
2024-03-02T20:02:16.772Z,12.63
2024-03-02T20:04:53.793Z,12.93
2024-03-02T20:07:25.943Z,13.13
2024-03-02T20:10:06.186Z,13.18
2024-03-02T20:12:43.574Z,12.68
2024-03-02T20:15:35.688Z,13.02
2024-03-02T20:18:15.124Z,14.60
2024-03-02T20:20:58.877Z,12.82
2024-03-02T20:23:54.052Z,13.00
2024-03-02T20:29:15.759Z,14.23
2024-03-02T20:32:01.892Z,14.38
2024-03-02T20:34:42.568Z,14.55
2024-03-02T20:37:25.552Z,13.77
2024-03-02T20:40:00.592Z,14.40
2024-03-02T20:42:39.852Z,14.48
2024-03-02T20:45:10.536Z,14.73
2024-03-02T20:47:42.942Z,14.23
2024-03-02T20:50:17.014Z,14.40
2024-03-02T20:52:53.898Z,14.50
2024-03-02T20:55:31.838Z,14.02
2024-03-02T20:58:07.948Z,13.93
2024-03-02T21:05:39.838Z,14.35
2024-03-02T21:12:19.030Z,14.05
2024-03-02T21:15:01.208Z,13.55
2024-03-02T21:17:56.287Z,13.20
2024-03-02T21:20:54.800Z,14.15
2024-03-02T21:31:35.779Z,14.52
2024-03-02T21:50:25.882Z,12.18
2024-03-02T22:09:38.027Z,13.57
2024-03-02T22:13:05.440Z,13.57
2024-03-02T22:15:37.509Z,14.32
2024-03-02T22:18:33.521Z,14.68
2024-03-02T22:21:14.450Z,15.45
2024-03-02T22:24:09.881Z,15.18
2024-03-02T22:27:03.959Z,14.77
2024-03-02T22:32:55.570Z,15.13
2024-03-02T22:36:28.916Z,14.25
2024-03-02T22:40:15.717Z,14.80
2024-03-02T22:43:04.075Z,13.15
2024-03-02T22:45:31.660Z,15.25
2024-03-02T22:48:00.177Z,15.10
2024-03-02T22:50:28.661Z,14.23
2024-03-02T22:52:55.955Z,14.80
2024-03-02T22:56:16.429Z,14.93
2024-03-02T23:01:25.845Z,14.35
2024-03-02T23:02:21.560Z,12.77
2024-03-02T23:05:22.242Z,13.85
2024-03-02T23:09:19.271Z,13.10
2024-03-02T23:11:34.585Z,14.77
2024-03-02T23:14:39.881Z,14.65
2024-03-02T23:17:25.917Z,14.98
2024-03-02T23:20:14.430Z,16.42
2024-03-02T23:23:10.894Z,16.25
2024-03-02T23:29:46.345Z,14.00
2024-03-02T23:32:42.922Z,12.65
2024-03-02T23:35:32.523Z,13.48
2024-03-02T23:38:51.234Z,13.52
2024-03-02T23:41:37.509Z,13.27
2024-03-02T23:47:17.544Z,15.02
2024-03-02T23:53:08.058Z,14.52
2024-03-02T23:55:51.839Z,13.88
2024-03-02T23:58:22.414Z,14.20
